sensor_id;sensor_type;location;lat;lon;timestamp;P1;durP1;ratioP1;P2;durP2;ratioP2
25752;SDS011;13600;50.816;4.416;2023-11-21T00:00:14;67.15;;;29.58;;
25752;SDS011;13600;50.816;4.416;2023-11-21T00:02:40;66.07;;;29.25;;
25752;SDS011;13600;50.816;4.416;2023-11-21T00:05:07;67.07;;;29.50;;
25752;SDS011;13600;50.816;4.416;2023-11-21T00:07:34;71.80;;;30.25;;
25752;SDS011;13600;50.816;4.416;2023-11-21T00:10:01;69.57;;;30.00;;
25752;SDS011;13600;50.816;4.416;2023-11-21T00:12:28;70.90;;;30.33;;
25752;SDS011;13600;50.816;4.416;2023-11-21T00:14:54;71.00;;;30.98;;
25752;SDS011;13600;50.816;4.416;2023-11-21T00:17:21;66.32;;;29.48;;
25752;SDS011;13600;50.816;4.416;2023-11-21T00:19:46;70.43;;;30.95;;
25752;SDS011;13600;50.816;4.416;2023-11-21T00:22:12;72.63;;;30.42;;
25752;SDS011;13600;50.816;4.416;2023-11-21T00:24:38;70.32;;;30.88;;
25752;SDS011;13600;50.816;4.416;2023-11-21T00:27:03;73.65;;;32.20;;
25752;SDS011;13600;50.816;4.416;2023-11-21T00:29:29;77.03;;;31.73;;
25752;SDS011;13600;50.816;4.416;2023-11-21T00:31:55;77.57;;;32.03;;
25752;SDS011;13600;50.816;4.416;2023-11-21T00:34:20;79.38;;;31.13;;
25752;SDS011;13600;50.816;4.416;2023-11-21T00:36:46;82.30;;;31.73;;
25752;SDS011;13600;50.816;4.416;2023-11-21T00:39:12;69.97;;;30.70;;
25752;SDS011;13600;50.816;4.416;2023-11-21T00:41:37;74.68;;;31.83;;
25752;SDS011;13600;50.816;4.416;2023-11-21T00:44:03;79.30;;;31.95;;
25752;SDS011;13600;50.816;4.416;2023-11-21T00:46:29;82.05;;;31.42;;
25752;SDS011;13600;50.816;4.416;2023-11-21T00:48:55;67.72;;;30.92;;
25752;SDS011;13600;50.816;4.416;2023-11-21T00:51:20;74.47;;;31.63;;
25752;SDS011;13600;50.816;4.416;2023-11-21T00:53:47;72.80;;;31.85;;
25752;SDS011;13600;50.816;4.416;2023-11-21T00:56:13;70.43;;;30.23;;
25752;SDS011;13600;50.816;4.416;2023-11-21T00:58:39;73.95;;;31.10;;
25752;SDS011;13600;50.816;4.416;2023-11-21T01:01:08;71.70;;;30.85;;
25752;SDS011;13600;50.816;4.416;2023-11-21T01:03:34;63.97;;;30.27;;
25752;SDS011;13600;50.816;4.416;2023-11-21T01:06:00;63.10;;;29.27;;
25752;SDS011;13600;50.816;4.416;2023-11-21T01:08:26;64.75;;;30.83;;
25752;SDS011;13600;50.816;4.416;2023-11-21T01:10:52;65.10;;;29.40;;
25752;SDS011;13600;50.816;4.416;2023-11-21T01:13:17;68.93;;;30.20;;
25752;SDS011;13600;50.816;4.416;2023-11-21T01:15:43;68.72;;;28.33;;
25752;SDS011;13600;50.816;4.416;2023-11-21T01:18:09;66.70;;;31.20;;
25752;SDS011;13600;50.816;4.416;2023-11-21T01:20:34;61.72;;;28.27;;
25752;SDS011;13600;50.816;4.416;2023-11-21T01:23:00;62.75;;;29.85;;
25752;SDS011;13600;50.816;4.416;2023-11-21T01:25:26;60.13;;;28.63;;
25752;SDS011;13600;50.816;4.416;2023-11-21T01:27:51;62.42;;;29.02;;
25752;SDS011;13600;50.816;4.416;2023-11-21T01:30:17;59.80;;;28.25;;
25752;SDS011;13600;50.816;4.416;2023-11-21T01:32:43;59.30;;;29.05;;
25752;SDS011;13600;50.816;4.416;2023-11-21T01:35:09;57.13;;;28.02;;
25752;SDS011;13600;50.816;4.416;2023-11-21T01:37:36;60.88;;;27.30;;
25752;SDS011;13600;50.816;4.416;2023-11-21T01:40:02;64.65;;;29.75;;
25752;SDS011;13600;50.816;4.416;2023-11-21T01:42:34;69.88;;;28.83;;
25752;SDS011;13600;50.816;4.416;2023-11-21T01:45:00;60.65;;;28.50;;
25752;SDS011;13600;50.816;4.416;2023-11-21T01:47:30;57.40;;;28.42;;
25752;SDS011;13600;50.816;4.416;2023-11-21T01:49:56;69.88;;;29.90;;
25752;SDS011;13600;50.816;4.416;2023-11-21T01:52:23;61.55;;;28.45;;
25752;SDS011;13600;50.816;4.416;2023-11-21T01:54:49;58.83;;;28.30;;
25752;SDS011;13600;50.816;4.416;2023-11-21T01:57:15;52.78;;;27.75;;
25752;SDS011;13600;50.816;4.416;2023-11-21T01:59:41;55.47;;;27.13;;
25752;SDS011;13600;50.816;4.416;2023-11-21T02:02:08;59.38;;;28.33;;
25752;SDS011;13600;50.816;4.416;2023-11-21T02:04:35;54.42;;;26.65;;
25752;SDS011;13600;50.816;4.416;2023-11-21T02:07:02;57.40;;;27.10;;
25752;SDS011;13600;50.816;4.416;2023-11-21T02:09:31;52.65;;;25.33;;
25752;SDS011;13600;50.816;4.416;2023-11-21T02:12:00;51.67;;;25.95;;
25752;SDS011;13600;50.816;4.416;2023-11-21T02:14:26;48.40;;;25.23;;
25752;SDS011;13600;50.816;4.416;2023-11-21T02:16:54;48.35;;;24.23;;
25752;SDS011;13600;50.816;4.416;2023-11-21T02:19:22;55.33;;;25.40;;
25752;SDS011;13600;50.816;4.416;2023-11-21T02:21:50;49.35;;;26.27;;
25752;SDS011;13600;50.816;4.416;2023-11-21T02:24:23;52.22;;;24.80;;
25752;SDS011;13600;50.816;4.416;2023-11-21T02:26:49;57.20;;;25.13;;
25752;SDS011;13600;50.816;4.416;2023-11-21T02:29:21;49.25;;;24.35;;
25752;SDS011;13600;50.816;4.416;2023-11-21T02:31:53;58.00;;;26.08;;
25752;SDS011;13600;50.816;4.416;2023-11-21T02:34:20;50.50;;;24.88;;
25752;SDS011;13600;50.816;4.416;2023-11-21T02:36:47;51.35;;;25.10;;
25752;SDS011;13600;50.816;4.416;2023-11-21T02:39:16;48.85;;;24.33;;
25752;SDS011;13600;50.816;4.416;2023-11-21T02:41:43;49.00;;;24.95;;
25752;SDS011;13600;50.816;4.416;2023-11-21T02:44:09;49.03;;;24.52;;
25752;SDS011;13600;50.816;4.416;2023-11-21T02:46:35;55.60;;;24.58;;
25752;SDS011;13600;50.816;4.416;2023-11-21T02:49:04;50.30;;;24.90;;
25752;SDS011;13600;50.816;4.416;2023-11-21T02:51:35;48.50;;;25.50;;
25752;SDS011;13600;50.816;4.416;2023-11-21T02:54:02;50.50;;;25.00;;
25752;SDS011;13600;50.816;4.416;2023-11-21T02:56:32;54.50;;;24.23;;
25752;SDS011;13600;50.816;4.416;2023-11-21T02:58:59;56.72;;;25.38;;
25752;SDS011;13600;50.816;4.416;2023-11-21T03:01:25;46.20;;;24.00;;
25752;SDS011;13600;50.816;4.416;2023-11-21T03:03:51;48.22;;;24.45;;
25752;SDS011;13600;50.816;4.416;2023-11-21T03:06:18;51.10;;;24.83;;
25752;SDS011;13600;50.816;4.416;2023-11-21T03:08:44;45.72;;;24.70;;
25752;SDS011;13600;50.816;4.416;2023-11-21T03:11:09;46.03;;;24.58;;
25752;SDS011;13600;50.816;4.416;2023-11-21T03:13:35;48.95;;;24.45;;
25752;SDS011;13600;50.816;4.416;2023-11-21T03:16:01;50.78;;;24.50;;
25752;SDS011;13600;50.816;4.416;2023-11-21T03:18:26;47.58;;;24.75;;
25752;SDS011;13600;50.816;4.416;2023-11-21T03:20:54;50.97;;;24.55;;
25752;SDS011;13600;50.816;4.416;2023-11-21T03:23:20;52.45;;;25.50;;
25752;SDS011;13600;50.816;4.416;2023-11-21T03:25:45;46.00;;;23.60;;
25752;SDS011;13600;50.816;4.416;2023-11-21T03:28:11;51.90;;;24.50;;
25752;SDS011;13600;50.816;4.416;2023-11-21T03:30:37;51.47;;;25.52;;
25752;SDS011;13600;50.816;4.416;2023-11-21T03:33:02;51.90;;;24.65;;
25752;SDS011;13600;50.816;4.416;2023-11-21T03:35:28;47.42;;;24.23;;
25752;SDS011;13600;50.816;4.416;2023-11-21T03:37:55;45.35;;;23.67;;
25752;SDS011;13600;50.816;4.416;2023-11-21T03:40:21;52.03;;;24.50;;
25752;SDS011;13600;50.816;4.416;2023-11-21T03:42:47;42.65;;;22.05;;
25752;SDS011;13600;50.816;4.416;2023-11-21T03:45:12;40.28;;;21.42;;
25752;SDS011;13600;50.816;4.416;2023-11-21T03:47:40;39.55;;;21.70;;
25752;SDS011;13600;50.816;4.416;2023-11-21T03:50:08;43.00;;;21.98;;
25752;SDS011;13600;50.816;4.416;2023-11-21T03:52:34;43.53;;;22.08;;
25752;SDS011;13600;50.816;4.416;2023-11-21T03:55:00;47.72;;;22.70;;
25752;SDS011;13600;50.816;4.416;2023-11-21T03:57:26;42.05;;;23.15;;
25752;SDS011;13600;50.816;4.416;2023-11-21T03:59:55;45.72;;;24.65;;
25752;SDS011;13600;50.816;4.416;2023-11-21T04:02:20;48.10;;;24.95;;
25752;SDS011;13600;50.816;4.416;2023-11-21T04:04:46;54.90;;;25.73;;
25752;SDS011;13600;50.816;4.416;2023-11-21T04:07:13;46.17;;;25.10;;
25752;SDS011;13600;50.816;4.416;2023-11-21T04:09:39;53.70;;;26.17;;
25752;SDS011;13600;50.816;4.416;2023-11-21T04:12:06;55.90;;;26.92;;
25752;SDS011;13600;50.816;4.416;2023-11-21T04:14:34;51.85;;;26.55;;
25752;SDS011;13600;50.816;4.416;2023-11-21T04:16:59;54.92;;;26.90;;
25752;SDS011;13600;50.816;4.416;2023-11-21T04:19:25;50.28;;;26.10;;
25752;SDS011;13600;50.816;4.416;2023-11-21T04:21:50;60.00;;;27.80;;
25752;SDS011;13600;50.816;4.416;2023-11-21T04:24:16;53.60;;;26.10;;
25752;SDS011;13600;50.816;4.416;2023-11-21T04:26:43;58.00;;;26.90;;
25752;SDS011;13600;50.816;4.416;2023-11-21T04:29:09;62.55;;;29.38;;
25752;SDS011;13600;50.816;4.416;2023-11-21T04:31:34;51.72;;;28.10;;
25752;SDS011;13600;50.816;4.416;2023-11-21T04:34:00;60.20;;;29.27;;
25752;SDS011;13600;50.816;4.416;2023-11-21T04:36:26;56.03;;;28.60;;
25752;SDS011;13600;50.816;4.416;2023-11-21T04:38:51;55.42;;;28.00;;
25752;SDS011;13600;50.816;4.416;2023-11-21T04:41:17;52.53;;;27.27;;
25752;SDS011;13600;50.816;4.416;2023-11-21T04:43:43;57.72;;;28.45;;
25752;SDS011;13600;50.816;4.416;2023-11-21T04:46:08;52.65;;;27.55;;
25752;SDS011;13600;50.816;4.416;2023-11-21T04:48:34;57.75;;;29.48;;
25752;SDS011;13600;50.816;4.416;2023-11-21T04:51:00;58.03;;;29.02;;
25752;SDS011;13600;50.816;4.416;2023-11-21T04:53:25;51.75;;;27.58;;
25752;SDS011;13600;50.816;4.416;2023-11-21T04:55:51;55.72;;;29.73;;
25752;SDS011;13600;50.816;4.416;2023-11-21T04:58:17;54.95;;;28.88;;
25752;SDS011;13600;50.816;4.416;2023-11-21T05:00:44;53.50;;;29.20;;
25752;SDS011;13600;50.816;4.416;2023-11-21T05:03:10;54.83;;;28.02;;
25752;SDS011;13600;50.816;4.416;2023-11-21T05:05:35;50.92;;;28.17;;
25752;SDS011;13600;50.816;4.416;2023-11-21T05:08:01;48.35;;;28.35;;
25752;SDS011;13600;50.816;4.416;2023-11-21T05:10:28;55.17;;;27.65;;
25752;SDS011;13600;50.816;4.416;2023-11-21T05:12:55;56.15;;;28.02;;
25752;SDS011;13600;50.816;4.416;2023-11-21T05:15:20;49.70;;;27.90;;
25752;SDS011;13600;50.816;4.416;2023-11-21T05:17:46;52.00;;;28.27;;
25752;SDS011;13600;50.816;4.416;2023-11-21T05:20:15;60.08;;;28.45;;
25752;SDS011;13600;50.816;4.416;2023-11-21T05:22:47;50.65;;;28.33;;
25752;SDS011;13600;50.816;4.416;2023-11-21T05:25:16;55.75;;;28.48;;
25752;SDS011;13600;50.816;4.416;2023-11-21T05:27:43;43.65;;;26.40;;
25752;SDS011;13600;50.816;4.416;2023-11-21T05:30:10;49.30;;;26.83;;
25752;SDS011;13600;50.816;4.416;2023-11-21T05:32:37;53.75;;;28.15;;
25752;SDS011;13600;50.816;4.416;2023-11-21T05:35:04;48.78;;;27.13;;
25752;SDS011;13600;50.816;4.416;2023-11-21T05:37:37;46.95;;;27.42;;
25752;SDS011;13600;50.816;4.416;2023-11-21T05:40:07;55.08;;;28.55;;
25752;SDS011;13600;50.816;4.416;2023-11-21T05:42:34;53.35;;;28.90;;
25752;SDS011;13600;50.816;4.416;2023-11-21T05:45:00;51.05;;;27.60;;
25752;SDS011;13600;50.816;4.416;2023-11-21T05:47:36;52.20;;;27.98;;
25752;SDS011;13600;50.816;4.416;2023-11-21T05:50:04;46.20;;;28.20;;
25752;SDS011;13600;50.816;4.416;2023-11-21T05:52:30;55.63;;;28.38;;
25752;SDS011;13600;50.816;4.416;2023-11-21T05:54:57;55.13;;;29.27;;
25752;SDS011;13600;50.816;4.416;2023-11-21T05:57:23;52.78;;;29.50;;
25752;SDS011;13600;50.816;4.416;2023-11-21T05:59:49;56.67;;;30.08;;
25752;SDS011;13600;50.816;4.416;2023-11-21T06:02:14;57.42;;;31.08;;
25752;SDS011;13600;50.816;4.416;2023-11-21T06:04:40;67.13;;;31.05;;
25752;SDS011;13600;50.816;4.416;2023-11-21T06:07:06;54.70;;;29.08;;
25752;SDS011;13600;50.816;4.416;2023-11-21T06:09:32;59.75;;;29.98;;
25752;SDS011;13600;50.816;4.416;2023-11-21T06:11:57;61.78;;;29.77;;
25752;SDS011;13600;50.816;4.416;2023-11-21T06:14:23;55.80;;;29.25;;
25752;SDS011;13600;50.816;4.416;2023-11-21T06:16:49;51.88;;;28.70;;
25752;SDS011;13600;50.816;4.416;2023-11-21T06:19:17;51.97;;;29.38;;
25752;SDS011;13600;50.816;4.416;2023-11-21T06:21:45;55.58;;;29.10;;
25752;SDS011;13600;50.816;4.416;2023-11-21T06:24:12;51.35;;;28.90;;
25752;SDS011;13600;50.816;4.416;2023-11-21T06:26:38;53.17;;;28.63;;
25752;SDS011;13600;50.816;4.416;2023-11-21T06:29:04;59.08;;;31.08;;
25752;SDS011;13600;50.816;4.416;2023-11-21T06:31:30;48.58;;;28.33;;
25752;SDS011;13600;50.816;4.416;2023-11-21T06:33:57;53.22;;;28.85;;
25752;SDS011;13600;50.816;4.416;2023-11-21T06:36:25;53.92;;;28.40;;
25752;SDS011;13600;50.816;4.416;2023-11-21T06:38:52;52.10;;;27.30;;
25752;SDS011;13600;50.816;4.416;2023-11-21T06:41:18;56.90;;;28.60;;
25752;SDS011;13600;50.816;4.416;2023-11-21T06:43:44;56.88;;;29.10;;
25752;SDS011;13600;50.816;4.416;2023-11-21T06:46:11;60.30;;;28.95;;
25752;SDS011;13600;50.816;4.416;2023-11-21T06:48:39;61.70;;;29.08;;
25752;SDS011;13600;50.816;4.416;2023-11-21T06:51:08;56.38;;;28.85;;
25752;SDS011;13600;50.816;4.416;2023-11-21T06:53:34;58.85;;;28.08;;
25752;SDS011;13600;50.816;4.416;2023-11-21T06:56:01;56.50;;;29.10;;
25752;SDS011;13600;50.816;4.416;2023-11-21T06:58:28;60.25;;;28.83;;
25752;SDS011;13600;50.816;4.416;2023-11-21T07:00:54;62.05;;;30.15;;
25752;SDS011;13600;50.816;4.416;2023-11-21T07:03:19;57.67;;;27.45;;
25752;SDS011;13600;50.816;4.416;2023-11-21T07:05:45;64.00;;;28.45;;
25752;SDS011;13600;50.816;4.416;2023-11-21T07:08:11;63.45;;;28.55;;
25752;SDS011;13600;50.816;4.416;2023-11-21T07:10:38;54.28;;;28.58;;
25752;SDS011;13600;50.816;4.416;2023-11-21T07:13:03;55.40;;;29.52;;
25752;SDS011;13600;50.816;4.416;2023-11-21T07:15:29;58.80;;;28.88;;
25752;SDS011;13600;50.816;4.416;2023-11-21T07:17:55;53.85;;;29.10;;
25752;SDS011;13600;50.816;4.416;2023-11-21T07:20:21;61.15;;;29.27;;
25752;SDS011;13600;50.816;4.416;2023-11-21T07:22:46;54.60;;;29.60;;
25752;SDS011;13600;50.816;4.416;2023-11-21T07:25:12;59.00;;;28.92;;
25752;SDS011;13600;50.816;4.416;2023-11-21T07:27:38;64.40;;;29.63;;
25752;SDS011;13600;50.816;4.416;2023-11-21T07:30:05;52.85;;;29.20;;
25752;SDS011;13600;50.816;4.416;2023-11-21T07:32:33;60.30;;;30.90;;
25752;SDS011;13600;50.816;4.416;2023-11-21T07:34:59;57.78;;;30.35;;
25752;SDS011;13600;50.816;4.416;2023-11-21T07:37:26;54.53;;;29.88;;
25752;SDS011;13600;50.816;4.416;2023-11-21T07:39:54;58.88;;;28.90;;
25752;SDS011;13600;50.816;4.416;2023-11-21T07:42:24;50.95;;;29.75;;
25752;SDS011;13600;50.816;4.416;2023-11-21T07:44:52;60.50;;;29.65;;
25752;SDS011;13600;50.816;4.416;2023-11-21T07:47:18;48.05;;;27.67;;
25752;SDS011;13600;50.816;4.416;2023-11-21T07:49:43;60.47;;;30.08;;
25752;SDS011;13600;50.816;4.416;2023-11-21T07:52:10;56.95;;;28.35;;
25752;SDS011;13600;50.816;4.416;2023-11-21T07:54:35;48.17;;;26.80;;
25752;SDS011;13600;50.816;4.416;2023-11-21T07:57:01;50.92;;;27.90;;
25752;SDS011;13600;50.816;4.416;2023-11-21T07:59:29;55.13;;;28.83;;
25752;SDS011;13600;50.816;4.416;2023-11-21T08:01:54;62.85;;;30.73;;
25752;SDS011;13600;50.816;4.416;2023-11-21T08:04:20;54.97;;;30.17;;
25752;SDS011;13600;50.816;4.416;2023-11-21T08:06:46;56.83;;;29.10;;
25752;SDS011;13600;50.816;4.416;2023-11-21T08:09:14;57.55;;;30.30;;
25752;SDS011;13600;50.816;4.416;2023-11-21T08:11:42;55.17;;;30.20;;
25752;SDS011;13600;50.816;4.416;2023-11-21T08:14:08;57.55;;;29.38;;
25752;SDS011;13600;50.816;4.416;2023-11-21T08:16:33;61.08;;;29.17;;
25752;SDS011;13600;50.816;4.416;2023-11-21T08:18:59;58.65;;;29.20;;
25752;SDS011;13600;50.816;4.416;2023-11-21T08:21:24;56.08;;;28.98;;
25752;SDS011;13600;50.816;4.416;2023-11-21T08:23:53;61.17;;;30.40;;
25752;SDS011;13600;50.816;4.416;2023-11-21T08:26:20;62.15;;;29.08;;
25752;SDS011;13600;50.816;4.416;2023-11-21T08:28:46;59.83;;;29.90;;
25752;SDS011;13600;50.816;4.416;2023-11-21T08:31:12;66.20;;;29.83;;
25752;SDS011;13600;50.816;4.416;2023-11-21T08:33:38;65.65;;;30.17;;
25752;SDS011;13600;50.816;4.416;2023-11-21T08:36:07;63.90;;;31.27;;
25752;SDS011;13600;50.816;4.416;2023-11-21T08:38:33;67.47;;;31.27;;
25752;SDS011;13600;50.816;4.416;2023-11-21T08:41:02;69.30;;;30.40;;
25752;SDS011;13600;50.816;4.416;2023-11-21T08:43:36;69.18;;;30.50;;
25752;SDS011;13600;50.816;4.416;2023-11-21T08:46:04;63.80;;;30.58;;
25752;SDS011;13600;50.816;4.416;2023-11-21T08:48:36;65.13;;;31.55;;
25752;SDS011;13600;50.816;4.416;2023-11-21T08:51:03;75.15;;;31.73;;
25752;SDS011;13600;50.816;4.416;2023-11-21T08:53:29;64.88;;;31.08;;
25752;SDS011;13600;50.816;4.416;2023-11-21T08:55:56;69.10;;;32.65;;
25752;SDS011;13600;50.816;4.416;2023-11-21T08:58:22;76.72;;;33.08;;
25752;SDS011;13600;50.816;4.416;2023-11-21T09:00:48;77.57;;;32.58;;
25752;SDS011;13600;50.816;4.416;2023-11-21T09:03:13;67.97;;;30.85;;
25752;SDS011;13600;50.816;4.416;2023-11-21T09:05:39;74.78;;;31.70;;
25752;SDS011;13600;50.816;4.416;2023-11-21T09:08:05;76.47;;;31.67;;
25752;SDS011;13600;50.816;4.416;2023-11-21T09:10:32;78.10;;;32.28;;
25752;SDS011;13600;50.816;4.416;2023-11-21T09:13:00;71.95;;;31.48;;
25752;SDS011;13600;50.816;4.416;2023-11-21T09:15:27;75.97;;;33.00;;
25752;SDS011;13600;50.816;4.416;2023-11-21T09:17:52;77.95;;;32.42;;
25752;SDS011;13600;50.816;4.416;2023-11-21T09:20:18;76.75;;;32.75;;
25752;SDS011;13600;50.816;4.416;2023-11-21T09:22:46;78.07;;;33.95;;
25752;SDS011;13600;50.816;4.416;2023-11-21T09:25:12;89.18;;;34.00;;
25752;SDS011;13600;50.816;4.416;2023-11-21T09:27:38;92.28;;;35.00;;
25752;SDS011;13600;50.816;4.416;2023-11-21T09:30:04;88.57;;;33.60;;
25752;SDS011;13600;50.816;4.416;2023-11-21T09:32:30;86.50;;;34.95;;
25752;SDS011;13600;50.816;4.416;2023-11-21T09:34:57;78.20;;;35.35;;
25752;SDS011;13600;50.816;4.416;2023-11-21T09:37:23;89.30;;;36.35;;
25752;SDS011;13600;50.816;4.416;2023-11-21T09:39:49;69.55;;;31.80;;
25752;SDS011;13600;50.816;4.416;2023-11-21T09:42:21;76.78;;;31.77;;
25752;SDS011;13600;50.816;4.416;2023-11-21T09:47:24;68.53;;;29.83;;
25752;SDS011;13600;50.816;4.416;2023-11-21T09:49:49;66.07;;;30.38;;
25752;SDS011;13600;50.816;4.416;2023-11-21T09:52:26;68.72;;;31.42;;
25752;SDS011;13600;50.816;4.416;2023-11-21T09:54:53;66.88;;;28.35;;
25752;SDS011;13600;50.816;4.416;2023-11-21T09:57:22;67.72;;;29.25;;
25752;SDS011;13600;50.816;4.416;2023-11-21T09:59:52;63.08;;;28.00;;
25752;SDS011;13600;50.816;4.416;2023-11-21T10:02:24;73.35;;;30.13;;
25752;SDS011;13600;50.816;4.416;2023-11-21T10:04:52;69.60;;;29.20;;
25752;SDS011;13600;50.816;4.416;2023-11-21T10:07:18;63.25;;;29.27;;
25752;SDS011;13600;50.816;4.416;2023-11-21T10:09:45;67.35;;;28.27;;
25752;SDS011;13600;50.816;4.416;2023-11-21T10:12:15;73.55;;;29.27;;
25752;SDS011;13600;50.816;4.416;2023-11-21T10:14:41;58.28;;;28.60;;
25752;SDS011;13600;50.816;4.416;2023-11-21T10:17:09;61.30;;;29.20;;
25752;SDS011;13600;50.816;4.416;2023-11-21T10:19:38;59.85;;;27.33;;
25752;SDS011;13600;50.816;4.416;2023-11-21T10:22:05;58.95;;;26.85;;
25752;SDS011;13600;50.816;4.416;2023-11-21T10:24:32;49.33;;;24.80;;
25752;SDS011;13600;50.816;4.416;2023-11-21T10:26:59;49.33;;;20.92;;
25752;SDS011;13600;50.816;4.416;2023-11-21T10:29:31;40.28;;;21.98;;
25752;SDS011;13600;50.816;4.416;2023-11-21T10:32:01;37.83;;;21.95;;
25752;SDS011;13600;50.816;4.416;2023-11-21T10:34:28;37.13;;;21.17;;
25752;SDS011;13600;50.816;4.416;2023-11-21T10:36:54;33.22;;;20.33;;
25752;SDS011;13600;50.816;4.416;2023-11-21T10:39:24;33.15;;;19.48;;
25752;SDS011;13600;50.816;4.416;2023-11-21T10:41:55;30.90;;;18.38;;
25752;SDS011;13600;50.816;4.416;2023-11-21T10:44:21;35.75;;;18.92;;
25752;SDS011;13600;50.816;4.416;2023-11-21T10:46:52;27.52;;;16.38;;
25752;SDS011;13600;50.816;4.416;2023-11-21T10:49:25;26.30;;;16.52;;
25752;SDS011;13600;50.816;4.416;2023-11-21T10:51:53;27.10;;;17.30;;
25752;SDS011;13600;50.816;4.416;2023-11-21T10:54:23;27.00;;;16.63;;
25752;SDS011;13600;50.816;4.416;2023-11-21T10:56:51;26.23;;;16.52;;
25752;SDS011;13600;50.816;4.416;2023-11-21T10:59:22;28.00;;;16.50;;
25752;SDS011;13600;50.816;4.416;2023-11-21T11:01:50;29.60;;;17.73;;
25752;SDS011;13600;50.816;4.416;2023-11-21T11:04:20;25.75;;;16.73;;
25752;SDS011;13600;50.816;4.416;2023-11-21T11:07:00;29.10;;;17.88;;
25752;SDS011;13600;50.816;4.416;2023-11-21T11:09:28;30.00;;;17.35;;
25752;SDS011;13600;50.816;4.416;2023-11-21T11:11:58;30.38;;;18.10;;
25752;SDS011;13600;50.816;4.416;2023-11-21T11:14:24;30.17;;;18.35;;
25752;SDS011;13600;50.816;4.416;2023-11-21T11:16:53;31.75;;;19.88;;
25752;SDS011;13600;50.816;4.416;2023-11-21T11:19:20;32.65;;;19.15;;
25752;SDS011;13600;50.816;4.416;2023-11-21T11:21:49;34.70;;;20.63;;
25752;SDS011;13600;50.816;4.416;2023-11-21T11:29:40;41.20;;;21.67;;
25752;SDS011;13600;50.816;4.416;2023-11-21T11:35:01;37.05;;;22.50;;
25752;SDS011;13600;50.816;4.416;2023-11-21T11:37:32;43.47;;;22.67;;
25752;SDS011;13600;50.816;4.416;2023-11-21T11:39:59;39.03;;;23.50;;
25752;SDS011;13600;50.816;4.416;2023-11-21T11:42:25;40.47;;;23.88;;
25752;SDS011;13600;50.816;4.416;2023-11-21T11:44:52;40.63;;;24.10;;
25752;SDS011;13600;50.816;4.416;2023-11-21T11:47:23;41.20;;;24.45;;
25752;SDS011;13600;50.816;4.416;2023-11-21T11:52:32;39.90;;;23.33;;
25752;SDS011;13600;50.816;4.416;2023-11-21T11:54:58;39.83;;;24.13;;
25752;SDS011;13600;50.816;4.416;2023-11-21T11:57:24;36.58;;;23.10;;
25752;SDS011;13600;50.816;4.416;2023-11-21T12:00:09;40.95;;;24.05;;
25752;SDS011;13600;50.816;4.416;2023-11-21T12:02:49;40.63;;;24.10;;
25752;SDS011;13600;50.816;4.416;2023-11-21T12:05:19;40.85;;;25.55;;
25752;SDS011;13600;50.816;4.416;2023-11-21T12:07:52;40.13;;;25.92;;
25752;SDS011;13600;50.816;4.416;2023-11-21T12:10:52;36.63;;;24.20;;
25752;SDS011;13600;50.816;4.416;2023-11-21T12:13:13;41.78;;;25.60;;
25752;SDS011;13600;50.816;4.416;2023-11-21T12:15:40;33.95;;;24.00;;
25752;SDS011;13600;50.816;4.416;2023-11-21T12:18:06;36.05;;;23.73;;
25752;SDS011;13600;50.816;4.416;2023-11-21T12:20:32;31.92;;;19.40;;
25752;SDS011;13600;50.816;4.416;2023-11-21T12:23:03;26.88;;;18.58;;
25752;SDS011;13600;50.816;4.416;2023-11-21T12:25:30;26.40;;;17.35;;
25752;SDS011;13600;50.816;4.416;2023-11-21T12:27:58;22.35;;;16.77;;
25752;SDS011;13600;50.816;4.416;2023-11-21T12:30:25;25.33;;;15.18;;
25752;SDS011;13600;50.816;4.416;2023-11-21T12:32:56;23.25;;;14.32;;
25752;SDS011;13600;50.816;4.416;2023-11-21T12:35:27;21.35;;;15.65;;
25752;SDS011;13600;50.816;4.416;2023-11-21T12:37:56;22.60;;;15.98;;
25752;SDS011;13600;50.816;4.416;2023-11-21T12:40:24;22.27;;;14.68;;
25752;SDS011;13600;50.816;4.416;2023-11-21T12:42:54;17.35;;;13.82;;
25752;SDS011;13600;50.816;4.416;2023-11-21T12:45:23;19.60;;;13.15;;
25752;SDS011;13600;50.816;4.416;2023-11-21T12:48:03;18.65;;;12.60;;
25752;SDS011;13600;50.816;4.416;2023-11-21T12:50:33;19.25;;;13.77;;
25752;SDS011;13600;50.816;4.416;2023-11-21T12:53:08;18.45;;;12.50;;
25752;SDS011;13600;50.816;4.416;2023-11-21T12:55:37;22.65;;;12.77;;
25752;SDS011;13600;50.816;4.416;2023-11-21T12:58:04;18.15;;;12.70;;
25752;SDS011;13600;50.816;4.416;2023-11-21T13:00:38;21.45;;;14.02;;
25752;SDS011;13600;50.816;4.416;2023-11-21T13:03:07;17.40;;;12.73;;
25752;SDS011;13600;50.816;4.416;2023-11-21T13:05:39;24.88;;;13.80;;
25752;SDS011;13600;50.816;4.416;2023-11-21T13:08:09;18.48;;;12.25;;
25752;SDS011;13600;50.816;4.416;2023-11-21T13:10:43;16.02;;;13.13;;
25752;SDS011;13600;50.816;4.416;2023-11-21T13:15:48;18.50;;;11.48;;
25752;SDS011;13600;50.816;4.416;2023-11-21T13:18:26;15.82;;;12.27;;
25752;SDS011;13600;50.816;4.416;2023-11-21T13:20:53;18.98;;;13.07;;
25752;SDS011;13600;50.816;4.416;2023-11-21T13:23:20;16.23;;;12.55;;
25752;SDS011;13600;50.816;4.416;2023-11-21T13:25:48;16.40;;;12.90;;
25752;SDS011;13600;50.816;4.416;2023-11-21T13:28:15;16.58;;;12.50;;
25752;SDS011;13600;50.816;4.416;2023-11-21T13:30:41;15.48;;;13.07;;
25752;SDS011;13600;50.816;4.416;2023-11-21T13:33:07;20.13;;;14.45;;
25752;SDS011;13600;50.816;4.416;2023-11-21T13:35:37;20.90;;;14.82;;
25752;SDS011;13600;50.816;4.416;2023-11-21T13:38:10;22.42;;;15.25;;
25752;SDS011;13600;50.816;4.416;2023-11-21T13:40:46;18.35;;;13.73;;
25752;SDS011;13600;50.816;4.416;2023-11-21T13:43:15;18.35;;;13.82;;
25752;SDS011;13600;50.816;4.416;2023-11-21T13:45:42;25.33;;;14.02;;
25752;SDS011;13600;50.816;4.416;2023-11-21T13:48:10;20.33;;;13.45;;
25752;SDS011;13600;50.816;4.416;2023-11-21T13:50:39;21.23;;;13.88;;
25752;SDS011;13600;50.816;4.416;2023-11-21T13:53:11;17.38;;;13.88;;
25752;SDS011;13600;50.816;4.416;2023-11-21T13:55:53;20.15;;;13.93;;
25752;SDS011;13600;50.816;4.416;2023-11-21T13:58:20;22.67;;;14.05;;
25752;SDS011;13600;50.816;4.416;2023-11-21T14:01:06;19.02;;;11.05;;
25752;SDS011;13600;50.816;4.416;2023-11-21T14:03:38;18.63;;;12.65;;
25752;SDS011;13600;50.816;4.416;2023-11-21T14:06:15;17.83;;;12.88;;
25752;SDS011;13600;50.816;4.416;2023-11-21T14:08:47;15.00;;;12.00;;
25752;SDS011;13600;50.816;4.416;2023-11-21T14:11:14;16.80;;;11.77;;
25752;SDS011;13600;50.816;4.416;2023-11-21T14:13:42;17.13;;;11.63;;
25752;SDS011;13600;50.816;4.416;2023-11-21T14:16:14;13.65;;;10.85;;
25752;SDS011;13600;50.816;4.416;2023-11-21T14:18:41;17.52;;;11.48;;
25752;SDS011;13600;50.816;4.416;2023-11-21T14:21:18;16.23;;;11.32;;
25752;SDS011;13600;50.816;4.416;2023-11-21T14:23:44;20.20;;;12.13;;
25752;SDS011;13600;50.816;4.416;2023-11-21T14:26:11;9.90;;;7.22;;
25752;SDS011;13600;50.816;4.416;2023-11-21T14:28:41;8.98;;;6.85;;
25752;SDS011;13600;50.816;4.416;2023-11-21T14:31:07;9.05;;;6.07;;
25752;SDS011;13600;50.816;4.416;2023-11-21T14:33:39;8.98;;;6.15;;
25752;SDS011;13600;50.816;4.416;2023-11-21T14:36:05;6.63;;;4.68;;
25752;SDS011;13600;50.816;4.416;2023-11-21T14:38:33;5.38;;;4.13;;